Time;durP1;ratioP1;P1;durP2;ratioP2;P2;SDS_P1;SDS_P2;PMS_P1;PMS_P2;Temp;Humidity;BMP_temperature;BMP_pressure;BME280_temperature;BME280_humidity;BME280_pressure;Samples;Min_cycle;Max_cycle;Signal;HPM_P1;HPM_P2
2021/07/05 00:00:13;;;;;;;4.32;3.10;;;;;;;17.45;90.12;99953.81;5047932;28;20420;-61
2021/07/05 00:02:41;;;;;;;5.13;3.10;;;;;;;17.45;90.10;99952.00;5049741;28;20484;-60
2021/07/05 00:05:10;;;;;;;3.58;2.70;;;;;;;17.47;90.04;99952.69;5035738;28;20067;-60
2021/07/05 00:07:37;;;;;;;3.47;2.78;;;;;;;17.49;90.26;99956.09;5035734;28;20064;-60
2021/07/05 00:10:06;;;;;;;7.20;3.38;;;;;;;17.52;89.55;99950.50;5037091;28;20059;-60
2021/07/05 00:12:33;;;;;;;5.43;3.80;;;;;;;17.50;89.69;99952.44;5047634;28;20152;-60
2021/07/05 00:15:01;;;;;;;3.05;2.70;;;;;;;17.48;89.91;99953.53;5052257;28;20729;-60
2021/07/05 00:17:27;;;;;;;5.28;3.10;;;;;;;17.46;90.34;99951.03;5051020;28;20053;-61
2021/07/05 00:19:54;;;;;;;4.10;3.40;;;;;;;17.47;89.97;99951.88;5048341;28;20056;-60
2021/07/05 00:22:20;;;;;;;4.82;3.13;;;;;;;17.45;89.82;99961.84;5054286;28;20039;-61
2021/07/05 00:24:47;;;;;;;4.25;3.05;;;;;;;17.44;90.28;99958.31;5044219;28;20045;-62
2021/07/05 00:27:13;;;;;;;8.93;3.42;;;;;;;17.46;89.88;99956.38;5049847;28;20049;-61
2021/07/05 00:29:40;;;;;;;5.32;3.55;;;;;;;17.44;89.82;99962.84;5041897;28;20061;-60
2021/07/05 00:32:06;;;;;;;5.05;3.15;;;;;;;17.41;90.34;99957.72;5044952;28;20052;-60
2021/07/05 00:34:33;;;;;;;5.15;3.15;;;;;;;17.40;90.41;99958.69;5041676;28;20059;-61
2021/07/05 00:37:00;;;;;;;4.90;3.20;;;;;;;17.40;90.80;99958.69;5046165;28;20397;-60
2021/07/05 00:39:26;;;;;;;5.43;3.17;;;;;;;17.38;90.67;99948.13;5027743;28;20045;-61
2021/07/05 00:41:53;;;;;;;5.95;3.47;;;;;;;17.38;90.67;99948.13;5020622;28;20077;-59
2021/07/05 00:44:19;;;;;;;5.88;3.78;;;;;;;17.37;90.93;99945.56;5027734;28;20053;-60
2021/07/05 00:46:46;;;;;;;5.10;3.13;;;;;;;17.36;91.04;99952.75;5040477;28;20067;-61
2021/07/05 00:49:13;;;;;;;5.97;3.25;;;;;;;17.33;91.04;99952.97;5043824;28;20075;-60
2021/07/05 00:51:39;;;;;;;4.18;3.30;;;;;;;17.32;91.13;99953.09;5051421;28;20093;-60
2021/07/05 00:54:06;;;;;;;7.50;3.70;;;;;;;17.30;91.13;99957.75;5028439;28;20053;-60
2021/07/05 00:56:32;;;;;;;5.45;2.92;;;;;;;17.29;91.29;99945.34;5025476;28;20060;-60
2021/07/05 00:58:59;;;;;;;4.60;3.22;;;;;;;17.27;91.41;99949.97;5032598;28;20045;-61
2021/07/05 01:01:26;;;;;;;4.05;3.08;;;;;;;17.26;91.37;99946.44;5034847;28;20037;-58
2021/07/05 01:03:53;;;;;;;4.95;3.50;;;;;;;17.25;91.35;99936.72;5036098;28;20404;-59
2021/07/05 01:06:19;;;;;;;6.65;3.60;;;;;;;17.27;91.27;99931.25;5028039;28;20397;-60
2021/07/05 01:08:46;;;;;;;5.88;3.45;;;;;;;17.24;91.29;99940.38;5030217;28;20050;-61
2021/07/05 01:11:13;;;;;;;5.85;3.05;;;;;;;17.23;91.58;99935.13;5027019;28;20060;-61
2021/07/05 01:13:40;;;;;;;8.68;3.83;;;;;;;17.20;91.59;99928.22;5044485;28;20063;-61
2021/07/05 01:16:06;;;;;;;5.22;3.70;;;;;;;17.19;91.73;99923.84;5026627;28;20050;-62
2021/07/05 01:18:33;;;;;;;4.45;3.03;;;;;;;17.16;92.24;99927.59;5038292;28;20053;-59
2021/07/05 01:21:01;;;;;;;4.45;3.10;;;;;;;17.14;91.92;99924.22;5032883;28;20057;-61
2021/07/05 01:23:29;;;;;;;5.78;3.75;;;;;;;17.14;92.00;99924.22;5032847;28;20638;-60
2021/07/05 01:25:56;;;;;;;4.22;3.30;;;;;;;17.14;92.04;99932.25;5026087;28;20049;-60
2021/07/05 01:28:24;;;;;;;7.60;3.80;;;;;;;17.11;91.77;99928.97;5022511;28;20046;-61
2021/07/05 01:30:51;;;;;;;5.30;3.30;;;;;;;17.10;92.18;99924.59;5033791;28;20092;-60
2021/07/05 01:33:18;;;;;;;4.28;3.38;;;;;;;17.08;92.20;99923.88;5034467;28;20618;-60
2021/07/05 01:35:45;;;;;;;4.03;3.33;;;;;;;17.07;92.58;99916.81;5021664;28;20067;-59
2021/07/05 01:38:18;;;;;;;3.42;3.13;;;;;;;17.05;92.43;99919.59;5028998;28;20046;-61
2021/07/05 01:40:51;;;;;;;6.50;3.63;;;;;;;17.05;92.80;99914.25;5021156;28;20057;-60
2021/07/05 01:43:18;;;;;;;4.43;3.55;;;;;;;17.06;92.74;99902.59;5020457;28;20057;-59
2021/07/05 01:45:44;;;;;;;5.72;3.58;;;;;;;17.07;92.66;99900.75;5030870;28;20419;-59
2021/07/05 01:48:11;;;;;;;4.30;3.47;;;;;;;17.07;92.47;99895.41;5012259;28;20061;-59
2021/07/05 01:50:37;;;;;;;3.83;3.33;;;;;;;17.08;92.89;99902.47;5029895;28;20056;-61
2021/07/05 01:53:05;;;;;;;4.75;3.45;;;;;;;17.07;92.75;99900.75;5030037;28;20053;-61
2021/07/05 01:55:34;;;;;;;5.35;3.85;;;;;;;17.08;92.73;99907.81;5006987;28;20572;-61
2021/07/05 01:58:03;;;;;;;4.97;3.35;;;;;;;17.08;92.64;99903.31;5024827;28;20092;-61
2021/07/05 02:00:32;;;;;;;5.00;3.03;;;;;;;17.09;92.51;99915.72;5026567;28;20046;-60
2021/07/05 02:03:00;;;;;;;4.43;3.35;;;;;;;17.09;92.37;99913.03;5032356;28;20124;-60
2021/07/05 02:05:27;;;;;;;5.68;3.30;;;;;;;17.14;92.65;99916.19;5019919;28;20620;-60
2021/07/05 02:07:55;;;;;;;3.72;2.90;;;;;;;17.13;92.12;99911.81;5029768;28;20584;-60
2021/07/05 02:10:25;;;;;;;8.27;3.33;;;;;;;17.16;92.22;99913.38;5025666;28;20045;-61
2021/07/05 02:12:55;;;;;;;6.68;3.38;;;;;;;17.23;91.83;99911.06;5036722;28;20053;-60
2021/07/05 02:15:22;;;;;;;5.07;3.33;;;;;;;17.26;91.34;99908.13;5032299;28;20080;-61
2021/07/05 02:17:49;;;;;;;6.60;3.20;;;;;;;17.25;91.30;99904.59;5025758;28;20088;-60
2021/07/05 02:20:23;;;;;;;4.60;3.03;;;;;;;17.26;91.31;99903.63;5020658;28;20057;-59
2021/07/05 02:22:52;;;;;;;5.43;2.83;;;;;;;17.25;91.23;99898.41;5031494;28;20056;-61
2021/07/05 02:25:23;;;;;;;3.70;3.22;;;;;;;17.22;91.31;99891.47;5027117;28;20522;-62
2021/07/05 02:27:50;;;;;;;4.95;3.33;;;;;;;17.17;91.41;99896.34;5035136;28;20132;-61
2021/07/05 02:30:19;;;;;;;6.35;3.30;;;;;;;17.15;91.65;99895.66;5024675;28;20077;-61
2021/07/05 02:32:47;;;;;;;6.38;3.50;;;;;;;17.15;91.64;99887.63;5026559;28;20075;-60
2021/07/05 02:35:17;;;;;;;3.35;2.83;;;;;;;17.16;91.88;99882.13;5023953;28;20056;-60
2021/07/05 02:37:44;;;;;;;4.13;2.80;;;;;;;17.22;91.98;99890.63;5029542;28;20057;-59
2021/07/05 02:40:15;;;;;;;6.95;3.03;;;;;;;17.25;91.82;99893.06;5026311;28;20136;-58
2021/07/05 02:42:43;;;;;;;5.13;3.17;;;;;;;17.31;91.03;99887.22;5031923;28;20056;-61
2021/07/05 02:45:17;;;;;;;4.50;3.20;;;;;;;17.32;91.25;99883.53;5032726;28;20049;-63
2021/07/05 02:47:45;;;;;;;7.30;3.55;;;;;;;17.32;90.95;99899.59;5019687;28;20054;-61
2021/07/05 02:50:12;;;;;;;4.80;3.08;;;;;;;17.30;90.84;99898.88;5039167;28;20057;-59
2021/07/05 02:52:38;;;;;;;4.25;3.22;;;;;;;17.26;91.11;99894.75;5033841;28;20058;-60
2021/07/05 02:55:09;;;;;;;7.97;3.70;;;;;;;17.25;91.22;99898.41;5032094;28;20053;-62
2021/07/05 02:57:36;;;;;;;8.13;3.23;;;;;;;17.29;91.37;99890.00;5032811;28;20055;-63
2021/07/05 03:00:23;;;;;;;7.82;3.30;;;;;;;17.29;91.30;99883.81;5039001;28;20069;-59
2021/07/05 03:02:50;;;;;;;5.78;2.92;;;;;;;17.30;91.01;99883.69;5022056;28;20049;-61
2021/07/05 03:05:21;;;;;;;4.07;3.22;;;;;;;17.31;91.16;99884.53;5022282;28;20072;-60
2021/07/05 03:07:48;;;;;;;4.10;3.25;;;;;;;17.30;90.65;99882.84;5022063;28;20049;-60
2021/07/05 03:10:17;;;;;;;5.82;3.30;;;;;;;17.27;91.34;99883.09;5025800;28;20057;-59
2021/07/05 03:12:44;;;;;;;3.20;2.90;;;;;;;17.30;91.17;99882.84;5022362;28;20045;-60
2021/07/05 03:15:13;;;;;;;5.13;3.28;;;;;;;17.30;91.28;99886.34;5025301;28;20052;-61
2021/07/05 03:17:41;;;;;;;4.15;3.00;;;;;;;17.34;91.53;99890.44;5020161;28;20046;-59
2021/07/05 03:20:10;;;;;;;5.68;3.03;;;;;;;17.38;91.37;99891.91;5026234;28;20052;-59
2021/07/05 03:22:37;;;;;;;4.43;3.08;;;;;;;17.41;91.38;99882.78;5026270;28;20049;-59
2021/07/05 03:25:07;;;;;;;4.10;3.28;;;;;;;17.45;91.56;99886.91;5013913;28;20060;-63
2021/07/05 03:27:34;;;;;;;3.85;2.97;;;;;;;17.48;91.21;99879.44;5022927;28;20053;-61
2021/07/05 03:30:01;;;;;;;7.30;2.67;;;;;;;17.51;91.08;99868.50;5026579;28;20049;-61
2021/07/05 03:32:28;;;;;;;3.10;2.80;;;;;;;17.51;90.53;99878.34;5029387;28;20409;-62
2021/07/05 03:34:54;;;;;;;6.95;2.80;;;;;;;17.53;90.80;99879.06;5029584;28;20052;-61
2021/07/05 03:37:21;;;;;;;6.57;2.72;;;;;;;17.53;90.53;99871.88;5028750;28;20049;-61
2021/07/05 03:39:47;;;;;;;5.20;2.63;;;;;;;17.57;90.87;99880.53;5027932;28;20123;-61
2021/07/05 03:42:14;;;;;;;7.35;2.92;;;;;;;17.58;90.98;99881.38;5026963;28;20049;-60
2021/07/05 03:44:40;;;;;;;4.30;2.67;;;;;;;17.60;90.84;99880.28;5022192;28;20053;-60
2021/07/05 03:47:07;;;;;;;4.88;2.58;;;;;;;17.63;90.57;99879.97;5027814;28;20064;-62
2021/07/05 03:49:34;;;;;;;3.38;2.70;;;;;;;17.69;90.35;99879.50;5023625;28;20091;-60
2021/07/05 03:52:00;;;;;;;9.63;5.60;;;;;;;17.73;90.42;99877.44;5023072;28;20053;-61
2021/07/05 03:54:27;;;;;;;7.68;2.88;;;;;;;17.76;89.86;99877.19;5027300;28;20067;-59
2021/07/05 03:56:54;;;;;;;5.82;3.08;;;;;;;17.77;89.49;99869.00;5020841;28;20045;-61
2021/07/05 03:59:20;;;;;;;6.55;2.33;;;;;;;17.85;88.98;99879.06;5030844;28;20057;-61
2021/07/05 04:01:47;;;;;;;5.47;2.20;;;;;;;17.88;88.83;99873.44;5025361;28;20060;-61
2021/07/05 04:04:14;;;;;;;3.00;2.28;;;;;;;17.95;88.49;99865.72;5030801;28;20045;-59
2021/07/05 04:06:40;;;;;;;3.03;2.50;;;;;;;18.00;88.26;99861.66;5020286;28;20049;-61
2021/07/05 04:09:08;;;;;;;5.00;2.60;;;;;;;18.03;87.65;99863.25;5025764;28;20049;-61
2021/07/05 04:11:35;;;;;;;4.57;2.20;;;;;;;18.02;87.75;99857.03;5017854;28;20045;-61
2021/07/05 04:14:01;;;;;;;5.25;2.47;;;;;;;18.05;87.43;99861.28;5029848;28;20428;-60
2021/07/05 04:16:28;;;;;;;6.57;2.28;;;;;;;18.10;87.31;99870.59;5026790;28;20045;-61
2021/07/05 04:18:54;;;;;;;7.07;2.50;;;;;;;18.14;87.04;99865.84;5027720;28;20045;-61
2021/07/05 04:21:25;;;;;;;4.45;2.35;;;;;;;18.14;87.01;99873.88;5020408;28;20076;-60
2021/07/05 04:23:53;;;;;;;2.85;2.08;;;;;;;18.16;86.41;99869.22;5017306;28;20048;-61
2021/07/05 04:26:21;;;;;;;4.30;2.22;;;;;;;18.16;86.69;99875.44;5029311;28;20419;-60
2021/07/05 04:28:47;;;;;;;5.70;2.35;;;;;;;18.12;86.99;99874.00;5028873;28;20050;-59
2021/07/05 04:31:14;;;;;;;3.63;2.20;;;;;;;18.10;87.27;99880.50;5020489;28;20128;-60
2021/07/05 04:33:40;;;;;;;6.45;2.13;;;;;;;18.07;87.60;99886.97;5030951;28;20076;-59
2021/07/05 04:36:07;;;;;;;4.65;2.22;;;;;;;18.08;87.83;99887.81;5022068;28;20060;-59
2021/07/05 04:38:33;;;;;;;3.65;2.17;;;;;;;18.10;88.16;99886.69;5027122;28;20041;-60
2021/07/05 04:41:03;;;;;;;3.05;2.17;;;;;;;18.10;87.83;99875.16;5021073;28;20200;-59
2021/07/05 04:43:30;;;;;;;5.07;2.17;;;;;;;18.11;87.64;99882.16;5028306;28;20038;-61
2021/07/05 04:46:02;;;;;;;3.83;2.03;;;;;;;18.10;88.02;99875.16;5024059;28;20478;-60
2021/07/05 04:48:29;;;;;;;3.15;2.10;;;;;;;18.10;88.19;99877.81;5022492;28;20091;-59
2021/07/05 04:50:55;;;;;;;4.35;2.30;;;;;;;18.11;88.46;99877.66;5021081;28;20408;-60
2021/07/05 04:53:23;;;;;;;4.38;1.95;;;;;;;18.15;88.39;99872.91;5034109;28;20737;-60
2021/07/05 04:55:50;;;;;;;3.22;2.10;;;;;;;18.14;88.56;99868.50;5029066;28;20051;-59
2021/07/05 04:58:16;;;;;;;5.70;2.20;;;;;;;18.14;88.52;99865.84;5035300;28;20051;-59
2021/07/05 05:00:42;;;;;;;4.68;2.15;;;;;;;18.16;88.80;99871.91;5028401;28;20045;-60
2021/07/05 05:03:09;;;;;;;4.32;2.20;;;;;;;18.17;88.72;99866.44;5048378;28;20045;-59
2021/07/05 05:05:39;;;;;;;6.97;2.72;;;;;;;18.18;87.62;99872.63;5030444;28;20053;-59
2021/07/05 05:08:06;;;;;;;3.80;2.33;;;;;;;18.23;88.15;99867.72;5042845;28;20067;-59
2021/07/05 05:10:33;;;;;;;3.08;2.30;;;;;;;18.29;88.30;99864.50;5026742;28;20049;-60
2021/07/05 05:12:59;;;;;;;3.70;2.30;;;;;;;18.39;88.20;99870.78;5010034;28;20508;-60
2021/07/05 05:15:26;;;;;;;3.97;2.05;;;;;;;18.45;87.66;99864.84;5017922;28;20105;-60
2021/07/05 05:17:53;;;;;;;5.13;2.35;;;;;;;18.52;87.43;99857.97;5028402;28;20057;-60
2021/07/05 05:20:21;;;;;;;4.00;2.28;;;;;;;18.61;86.93;99863.53;5019223;28;20617;-59
2021/07/05 05:22:48;;;;;;;3.33;2.00;;;;;;;18.64;86.91;99865.94;5025690;28;20535;-59
2021/07/05 05:25:16;;;;;;;3.72;2.25;;;;;;;18.59;86.88;99860.97;5026383;28;20060;-59
2021/07/05 05:27:44;;;;;;;5.55;2.47;;;;;;;18.53;87.00;99862.38;5028458;28;20049;-61
2021/07/05 05:30:12;;;;;;;3.58;2.83;;;;;;;18.49;88.19;99868.97;5021751;28;20394;-61
2021/07/05 05:32:43;;;;;;;6.10;2.88;;;;;;;18.49;88.09;99858.25;5014004;28;20053;-60
2021/07/05 05:35:11;;;;;;;4.13;2.70;;;;;;;18.44;88.47;99857.78;5012600;28;20057;-60
2021/07/05 05:37:38;;;;;;;4.60;2.33;;;;;;;18.40;88.91;99860.91;5023328;28;20072;-60
2021/07/05 05:40:05;;;;;;;4.15;2.50;;;;;;;18.35;89.74;99872.03;5024164;28;22101;-60
2021/07/05 05:42:32;;;;;;;3.30;2.22;;;;;;;18.35;90.06;99869.34;5007389;28;20050;-60
2021/07/05 05:44:58;;;;;;;4.63;2.40;;;;;;;18.33;89.46;99875.81;5001891;28;20132;-61
2021/07/05 05:47:25;;;;;;;3.80;2.40;;;;;;;18.32;90.57;99866.91;5013458;28;20056;-60
2021/07/05 05:49:52;;;;;;;5.18;2.53;;;;;;;18.33;91.25;99860.56;5018047;28;20041;-60
2021/07/05 05:52:18;;;;;;;3.97;2.83;;;;;;;18.29;91.03;99861.81;5016760;28;20060;-60
2021/07/05 05:54:45;;;;;;;6.25;3.00;;;;;;;18.31;90.99;99862.53;5015713;28;22301;-60
2021/07/05 05:57:25;;;;;;;7.55;2.90;;;;;;;18.30;91.22;99860.84;5015532;28;20054;-60
2021/07/05 05:59:57;;;;;;;4.45;2.35;;;;;;;18.32;91.02;99866.91;4999905;28;20444;-60
2021/07/05 06:02:25;;;;;;;3.30;2.33;;;;;;;18.33;90.70;99863.25;5005064;28;20145;-60
2021/07/05 06:04:53;;;;;;;3.33;2.38;;;;;;;18.38;91.51;99865.53;5025714;28;20497;-59
2021/07/05 06:07:20;;;;;;;5.38;2.35;;;;;;;18.46;91.52;99876.44;5023914;28;20052;-61
2021/07/05 06:09:47;;;;;;;4.90;2.83;;;;;;;18.47;90.28;99868.25;5019822;28;20046;-60
2021/07/05 06:12:14;;;;;;;3.92;2.38;;;;;;;18.47;90.21;99867.41;5020555;28;20745;-59
2021/07/05 06:14:40;;;;;;;3.35;2.47;;;;;;;18.50;89.93;99868.00;5009662;28;20067;-59
2021/07/05 06:17:10;;;;;;;4.18;2.80;;;;;;;18.53;89.95;99859.69;5018963;28;20176;-59
2021/07/05 06:19:37;;;;;;;3.88;2.50;;;;;;;18.55;89.22;99873.81;5018023;28;20048;-59
2021/07/05 06:22:12;;;;;;;4.00;2.83;;;;;;;18.59;89.28;99874.38;5020090;28;20493;-60
2021/07/05 06:24:39;;;;;;;6.28;2.88;;;;;;;18.59;89.17;99877.06;5012910;28;20045;-59
2021/07/05 06:27:06;;;;;;;4.25;2.88;;;;;;;18.61;88.47;99875.09;5033196;28;20083;-59
2021/07/05 06:29:34;;;;;;;4.00;2.60;;;;;;;18.63;88.61;99880.34;5017160;28;20788;-59
2021/07/05 06:32:01;;;;;;;3.25;2.80;;;;;;;18.64;89.40;99876.69;5017124;28;20050;-60
2021/07/05 06:34:27;;;;;;;3.97;2.35;;;;;;;18.67;88.07;99865.69;5003827;28;20050;-60
2021/07/05 06:36:54;;;;;;;3.85;3.10;;;;;;;18.66;88.37;99875.56;5021805;28;20452;-60
2021/07/05 06:39:20;;;;;;;5.68;3.20;;;;;;;18.66;89.01;99874.72;5017301;28;20072;-59
2021/07/05 06:41:47;;;;;;;4.22;3.17;;;;;;;18.69;88.84;99874.44;5023790;28;20476;-60
2021/07/05 06:44:13;;;;;;;9.70;3.40;;;;;;;18.71;89.02;99870.66;5020265;28;20042;-60
2021/07/05 06:46:40;;;;;;;8.65;3.45;;;;;;;18.74;88.52;99883.75;5025800;28;20485;-60
2021/07/05 06:49:06;;;;;;;8.15;3.90;;;;;;;18.80;88.76;99869.81;5019542;28;20119;-59
2021/07/05 06:51:33;;;;;;;7.53;3.50;;;;;;;18.82;86.99;99877.72;5031414;28;20060;-60
2021/07/05 06:53:59;;;;;;;3.50;3.03;;;;;;;18.82;87.51;99885.78;5042819;28;20497;-58
2021/07/05 06:56:26;;;;;;;7.63;3.28;;;;;;;18.78;87.51;99887.88;5048492;28;20516;-61
2021/07/05 06:58:52;;;;;;;3.30;3.00;;;;;;;18.72;87.42;99887.59;5045798;28;20510;-60
2021/07/05 07:01:19;;;;;;;4.65;3.00;;;;;;;18.72;87.38;99898.31;5040106;28;20052;-60
2021/07/05 07:03:45;;;;;;;6.45;3.13;;;;;;;18.74;87.52;99896.31;5037911;28;20099;-61
2021/07/05 07:06:12;;;;;;;9.32;2.88;;;;;;;18.80;87.11;99891.28;5028826;28;20045;-61
2021/07/05 07:08:38;;;;;;;6.38;4.10;;;;;;;18.87;87.04;99895.13;5031797;28;20061;-62
2021/07/05 07:11:05;;;;;;;4.70;3.05;;;;;;;18.93;86.33;99891.03;5042067;28;20618;-60
2021/07/05 07:13:32;;;;;;;6.15;3.22;;;;;;;18.98;86.23;99883.41;5039555;28;20060;-60
2021/07/05 07:16:01;;;;;;;6.53;3.05;;;;;;;18.96;86.34;99890.75;5042749;28;20764;-60
2021/07/05 07:20:58;;;;;;;4.95;3.33;;;;;;;19.05;86.76;99889.91;5046317;28;20041;-62
2021/07/05 07:23:24;;;;;;;5.97;3.10;;;;;;;19.19;85.63;99888.69;5050232;28;20045;-60
2021/07/05 07:25:51;;;;;;;4.85;3.20;;;;;;;19.27;85.58;99888.81;5053354;28;20076;-61
2021/07/05 07:28:18;;;;;;;7.68;3.05;;;;;;;19.21;84.69;99887.53;5060415;28;20059;-59
2021/07/05 07:30:44;;;;;;;8.77;3.13;;;;;;;19.14;84.38;99878.38;5052805;28;20050;-61
2021/07/05 07:33:11;;;;;;;8.60;3.78;;;;;;;19.13;86.53;99884.72;5054596;28;20391;-59
2021/07/05 07:35:37;;;;;;;5.93;3.30;;;;;;;19.18;85.80;99887.84;5056651;28;20485;-61
2021/07/05 07:38:04;;;;;;;6.57;3.90;;;;;;;19.18;85.25;99889.69;5054077;28;20120;-59
2021/07/05 07:40:35;;;;;;;4.32;3.13;;;;;;;19.19;85.58;99889.53;5053959;28;20076;-61
2021/07/05 07:43:02;;;;;;;5.57;3.42;;;;;;;19.25;85.68;99888.13;5052760;28;20063;-59
2021/07/05 07:45:28;;;;;;;4.18;3.25;;;;;;;19.33;85.84;99882.06;5044758;28;20063;-59
2021/07/05 07:47:55;;;;;;;4.43;3.45;;;;;;;19.44;85.76;99890.81;5045518;28;20053;-59
2021/07/05 07:50:21;;;;;;;4.15;3.28;;;;;;;19.50;85.24;99884.94;5048958;28;20061;-60
2021/07/05 07:52:48;;;;;;;5.15;3.70;;;;;;;19.59;85.12;99888.59;5045452;28;20136;-59
2021/07/05 07:55:16;;;;;;;6.50;3.50;;;;;;;19.59;84.74;99881.38;5038399;28;20048;-59
2021/07/05 07:57:43;;;;;;;4.35;3.33;;;;;;;19.63;84.23;99884.63;5041149;28;20128;-59
2021/07/05 08:00:14;;;;;;;6.68;3.63;;;;;;;19.68;84.69;99879.66;5040943;28;20088;-61
2021/07/05 08:02:43;;;;;;;4.63;3.28;;;;;;;19.76;84.35;99878.97;5038832;28;20452;-60
2021/07/05 08:05:10;;;;;;;4.05;3.22;;;;;;;19.85;82.53;99878.09;5039691;28;20048;-61
2021/07/05 08:07:40;;;;;;;5.25;3.47;;;;;;;19.98;82.10;99883.19;5027780;28;20064;-62
2021/07/05 08:10:13;;;;;;;3.13;2.78;;;;;;;20.09;81.42;99872.28;5043682;28;20131;-58
2021/07/05 08:12:41;;;;;;;5.78;3.13;;;;;;;20.24;81.69;99882.41;5044615;28;20255;-60
2021/07/05 08:15:09;;;;;;;3.17;2.78;;;;;;;20.33;80.17;99881.53;5043455;28;20049;-58
2021/07/05 08:17:36;;;;;;;5.60;2.70;;;;;;;20.37;78.58;99884.81;5043785;28;20063;-61
2021/07/05 08:20:04;;;;;;;6.75;2.90;;;;;;;20.42;79.71;99881.69;5026451;28;20055;-60
2021/07/05 08:22:32;;;;;;;4.97;3.20;;;;;;;20.46;78.68;99877.72;5047838;28;20051;-60
2021/07/05 08:24:59;;;;;;;3.35;3.00;;;;;;;20.51;78.75;99875.41;5038463;28;20049;-61
2021/07/05 08:27:26;;;;;;;4.85;3.00;;;;;;;20.55;78.38;99869.59;5044581;28;20864;-60
2021/07/05 08:29:53;;;;;;;4.75;2.80;;;;;;;20.58;78.02;99863.91;5036691;28;20135;-60
2021/07/05 08:32:19;;;;;;;5.57;2.85;;;;;;;20.63;77.11;99861.59;5043375;28;20060;-61
2021/07/05 08:34:46;;;;;;;4.65;2.55;;;;;;;20.69;76.97;99857.47;5042322;28;20076;-61
2021/07/05 08:37:13;;;;;;;4.78;2.70;;;;;;;20.72;76.32;99864.41;5047459;28;20044;-61
2021/07/05 08:39:40;;;;;;;5.00;2.88;;;;;;;20.87;76.53;99873.69;5046812;28;20396;-61
2021/07/05 08:42:07;;;;;;;3.47;2.47;;;;;;;20.95;73.10;99863.84;5048985;28;20049;-60
2021/07/05 08:44:34;;;;;;;4.95;2.30;;;;;;;20.94;74.21;99864.00;5039001;28;20049;-60
2021/07/05 08:47:03;;;;;;;4.32;2.72;;;;;;;20.92;74.30;99861.47;5041089;28;20060;-61
2021/07/05 08:49:30;;;;;;;3.97;2.53;;;;;;;20.94;74.01;99855.91;5049752;28;20064;-61
2021/07/05 08:51:56;;;;;;;2.80;2.60;;;;;;;21.00;75.32;99868.78;5046439;28;20112;-60
2021/07/05 08:54:23;;;;;;;6.95;3.22;;;;;;;21.08;73.51;99863.50;5042440;28;20144;-60
2021/07/05 08:56:50;;;;;;;3.83;2.63;;;;;;;20.94;72.46;99861.28;5046030;28;20059;-59
2021/07/05 08:59:21;;;;;;;3.53;2.58;;;;;;;20.93;72.85;99859.63;5043657;28;20056;-61
2021/07/05 09:01:48;;;;;;;3.63;2.08;;;;;;;20.92;71.26;99856.09;5057365;28;20112;-61
2021/07/05 09:04:15;;;;;;;2.28;2.03;;;;;;;20.86;71.95;99855.84;5036373;28;20071;-62
2021/07/05 09:07:04;;;;;;;4.13;2.30;;;;;;;20.96;72.66;99856.63;5043365;28;20765;-60
2021/07/05 09:09:31;;;;;;;4.20;2.60;;;;;;;21.07;71.33;99847.50;5043749;28;20052;-62
2021/07/05 09:12:06;;;;;;;3.47;2.20;;;;;;;21.12;70.90;99858.63;5043014;28;20059;-60
2021/07/05 09:14:34;;;;;;;2.70;1.98;;;;;;;21.13;70.26;99853.09;5019923;28;20055;-62
2021/07/05 09:17:08;;;;;;;3.55;2.40;;;;;;;21.14;70.79;99846.72;5051838;28;20079;-58
2021/07/05 09:19:37;;;;;;;2.95;1.75;;;;;;;21.25;69.07;99853.78;5042632;28;20048;-62
2021/07/05 09:22:07;;;;;;;3.35;1.90;;;;;;;21.39;68.71;99855.94;5052240;28;20140;-61
2021/07/05 09:24:43;;;;;;;2.47;2.28;;;;;;;21.66;67.36;99841.50;5041816;28;20063;-62
2021/07/05 09:27:11;;;;;;;2.97;1.90;;;;;;;21.94;66.69;99851.16;5045077;28;20072;-63
2021/07/05 09:29:40;;;;;;;3.85;2.50;;;;;;;22.33;65.00;99848.91;5051146;28;20146;-62
2021/07/05 09:32:10;;;;;;;2.83;2.40;;;;;;;22.67;65.46;99843.47;5048459;28;20056;-61
2021/07/05 09:34:42;;;;;;;2.30;2.08;;;;;;;22.94;62.91;99838.91;5033965;28;20063;-62
2021/07/05 09:37:23;;;;;;;3.97;3.00;;;;;;;23.17;61.25;99839.09;5029506;28;20109;-64
2021/07/05 09:40:05;;;;;;;7.30;2.60;;;;;;;23.28;60.40;99836.94;5046965;28;20087;-63
2021/07/05 09:42:43;;;;;;;2.72;2.40;;;;;;;23.32;60.44;99846.38;5049631;28;20550;-62
2021/07/05 09:45:32;;;;;;;3.65;2.35;;;;;;;23.36;59.64;99844.19;5042309;28;20041;-63
2021/07/05 09:48:23;;;;;;;5.75;2.50;;;;;;;23.36;59.12;99847.75;5041285;28;20052;-65
2021/07/05 09:51:00;;;;;;;3.20;2.72;;;;;;;23.21;57.18;99852.13;5050052;28;20185;-61
2021/07/05 09:53:32;;;;;;;4.57;2.45;;;;;;;23.06;58.53;99854.63;5027110;28;20052;-59
2021/07/05 09:56:34;;;;;;;3.53;2.40;;;;;;;23.05;58.31;99847.53;5023610;28;20058;-60
2021/07/05 09:59:19;;;;;;;4.45;2.50;;;;;;;23.05;58.19;99835.88;4944299;28;20043;-60
2021/07/05 10:01:49;;;;;;;2.40;2.13;;;;;;;23.08;56.73;99840.94;5017501;28;20045;-61
2021/07/05 10:04:27;;;;;;;3.58;1.98;;;;;;;23.19;54.03;99853.28;5029120;28;20516;-60
2021/07/05 10:07:02;;;;;;;2.70;1.80;;;;;;;23.24;55.03;99850.94;5029482;28;20055;-62
2021/07/05 10:09:41;;;;;;;3.70;2.20;;;;;;;23.24;54.73;99849.09;5020980;28;20053;-63
2021/07/05 10:12:26;;;;;;;2.83;1.70;;;;;;;23.22;56.25;99844.84;5030944;28;20057;-60
2021/07/05 10:14:56;;;;;;;3.83;1.80;;;;;;;23.25;57.43;99841.81;5024816;28;20656;-61
2021/07/05 10:17:24;;;;;;;3.70;1.50;;;;;;;23.30;57.37;99847.56;5027610;28;20056;-63
2021/07/05 10:19:51;;;;;;;1.92;1.70;;;;;;;23.29;57.05;99846.75;5032584;28;20100;-60
2021/07/05 10:22:18;;;;;;;3.13;1.67;;;;;;;23.20;57.79;99846.88;5024736;28;20140;-61
2021/07/05 10:24:46;;;;;;;3.25;1.77;;;;;;;23.24;56.33;99842.84;5010075;28;20485;-62
2021/07/05 10:27:14;;;;;;;2.90;1.80;;;;;;;23.22;55.68;99856.50;5019653;28;20451;-62
2021/07/05 10:29:43;;;;;;;3.28;1.67;;;;;;;23.25;56.07;99850.78;5022927;28;20048;-59
2021/07/05 10:32:10;;;;;;;3.72;1.50;;;;;;;23.36;55.67;99850.44;5024236;28;20411;-61
2021/07/05 10:34:38;;;;;;;3.55;1.80;;;;;;;23.41;54.39;99860.75;5012408;28;20501;-62
2021/07/05 10:37:14;;;;;;;4.22;1.85;;;;;;;23.50;53.40;99857.03;5029062;28;20508;-60
2021/07/05 10:39:46;;;;;;;2.58;1.60;;;;;;;23.54;53.08;99855.72;5021855;28;20050;-62
2021/07/05 10:42:34;;;;;;;3.08;1.45;;;;;;;23.60;53.40;99859.63;5027127;28;20140;-62
2021/07/05 10:45:02;;;;;;;1.80;1.08;;;;;;;23.45;51.85;99864.81;5025724;28;20099;-61
2021/07/05 10:47:54;;;;;;;3.42;1.30;;;;;;;23.30;52.62;99851.09;5025852;28;21013;-60
2021/07/05 10:50:41;;;;;;;3.10;1.17;;;;;;;23.32;52.05;99851.78;5026260;28;20057;-60
2021/07/05 10:53:13;;;;;;;2.88;1.88;;;;;;;23.18;53.22;99846.19;5041907;28;20063;-59
2021/07/05 10:55:51;;;;;;;4.07;1.63;;;;;;;22.92;55.27;99849.84;5049072;28;20057;-62
2021/07/05 10:58:31;;;;;;;2.95;1.70;;;;;;;22.79;55.43;99849.47;5047514;28;20419;-61
2021/07/05 11:01:06;;;;;;;2.78;1.25;;;;;;;22.79;56.32;99857.59;5044453;28;20053;-61
2021/07/05 11:03:35;;;;;;;2.35;1.73;;;;;;;22.92;55.27;99851.72;5029861;28;20523;-60
2021/07/05 11:06:23;;;;;;;3.15;1.60;;;;;;;22.99;55.60;99850.03;5047683;28;20056;-62
2021/07/05 11:08:51;;;;;;;1.40;1.27;;;;;;;22.99;55.77;99841.91;5029085;28;20826;-61
2021/07/05 11:11:23;;;;;;;2.83;1.60;;;;;;;22.86;55.73;99841.56;5049390;28;20183;-61
2021/07/05 11:14:21;;;;;;;2.60;1.40;;;;;;;22.74;57.00;99844.53;5046988;28;20128;-61
2021/07/05 11:17:01;;;;;;;5.22;1.80;;;;;;;22.52;58.54;99844.25;5046215;28;20049;-61
2021/07/05 11:19:40;;;;;;;3.58;1.75;;;;;;;22.36;59.92;99845.03;5049483;28;20053;-61
2021/07/05 11:22:30;;;;;;;4.78;2.05;;;;;;;22.23;60.05;99842.75;5039731;28;20064;-61
2021/07/05 11:25:00;;;;;;;3.70;2.30;;;;;;;22.22;59.61;99832.13;5043549;28;20055;-62
2021/07/05 11:27:46;;;;;;;2.67;1.90;;;;;;;22.25;60.17;99829.97;5043259;28;20052;-61
2021/07/05 11:30:14;;;;;;;4.82;1.98;;;;;;;22.26;60.05;99834.34;5034057;28;20048;-61
2021/07/05 11:32:43;;;;;;;6.13;1.90;;;;;;;22.36;59.88;99835.06;5037620;28;20424;-62
2021/07/05 11:35:29;;;;;;;;;;;;;;;22.46;59.54;99834.13;5049188;28;20507;-61
2021/07/05 11:37:59;;;;;;;3.42;1.60;;;;;;;22.87;58.94;99829.75;5045938;28;19927;-61
2021/07/05 11:40:50;;;;;;;3.58;2.20;;;;;;;23.27;57.29;99827.16;5029173;28;20440;-61
2021/07/05 11:43:37;;;;;;;3.78;1.85;;;;;;;23.45;55.36;99833.22;5044694;28;20055;-60
2021/07/05 11:46:03;;;;;;;3.33;2.15;;;;;;;23.29;55.17;99827.84;5047937;28;20064;-60